Impacts METAR Board
IDs:

KSAN - San Diego Intl Arpt, CA, US

Updated at: 2300 UTC 02 Oct 2022
Potential Impact None Slight Moderate High
Time 02/11Z 02/12Z 02/13Z 02/14Z 02/15Z 02/16Z 02/17Z 02/18Z 02/19Z 02/20Z 02/21Z 02/22Z 02/23Z
Temp68 68 68 69 69 70 70 71 73 73 73 73 72
Dewpt58 59 59 59 59 59 59 59 59 59 59 59 59
Altim29.90 29.91 29.92 29.93 29.95 29.97 29.98 29.98 29.97 29.95 29.94 29.93 29.93
VIS10 10 10 10 10 10 10 10 10 10 10 10 10
CIG22 21 21 21 21 22 23 23 25 -- -- -- --
CoverOVCOVCOVCOVCOVCOVCOVCOVCBKNSCTFEWFEWFEW
FltCatMVFRMVFRMVFRMVFRMVFRMVFRMVFRMVFRMVFRVFRVFRVFRVFR
WX--------------------------
WDir3100000100260310310300310320
WSpd3 0 0 0 0 3 0 7 8 10 12 11 10
WGst-- -- -- -- -- -- -- -- -- -- 17 15 --
Raw hourly METARs
KSAN 021051Z 31003KT 10SM OVC022 20/14 A2990 RMK AO2 SLP125 T02000144
KSAN 021151Z 00000KT 10SM OVC021 20/15 A2991 RMK AO2 SLP128 T02000150 10206 20200 53001
KSAN 021251Z 00000KT 10SM OVC021 20/15 A2992 RMK AO2 SLP132 T02000150
KSAN 021351Z 00000KT 10SM OVC021 21/15 A2993 RMK AO2 SLP135 T02060150
KSAN 021451Z COR 00000KT 10SM OVC021 21/15 A2995 RMK AO2 SLP141 T02060150 53013
KSAN 021551Z 01003KT 10SM OVC022 21/15 A2997 RMK AO2 SLP147 T02110150
KSAN 021651Z 00000KT 10SM OVC023 21/15 A2998 RMK AO2 SLP152 T02110150
KSAN 021751Z 26007KT 10SM OVC023 22/15 A2998 RMK AO2 SLP151 T02170150 10217 20200 50010
KSAN 021851Z 31008KT 10SM BKN025 23/15 A2997 RMK AO2 SLP147 T02280150
KSAN 021951Z 31010KT 10SM SCT025 23/15 A2995 RMK AO2 SLP143 T02280150
KSAN 022051Z 30012G17KT 10SM FEW025 FEW035 23/15 A2994 RMK AO2 SLP136 TCU DSNT NE T02280150 58015
KSAN 022151Z 31011G15KT 10SM FEW025 FEW035 23/15 A2993 RMK AO2 SLP134 TCU DSNT NE T02280150
KSAN 022251Z 32010KT 10SM FEW025 FEW035 22/15 A2993 RMK AO2 SLP134 TCU DSNT NE T02220150



Page loaded:  23:06 UTC  |   04:06 PM Pacific  |   05:06 PM Mountain  |   06:06 PM Central  |   07:06 PM Eastern

 

ADVISORIES

FORECASTS

FORECASTS

OBSERVATIONS

USER TOOLS

ABOUT US